Time;durP1;ratioP1;P1;durP2;ratioP2;P2;SDS_P1;SDS_P2;PMS_P1;PMS_P2;Temp;Humidity;BMP_temperature;BMP_pressure;BME280_temperature;BME280_humidity;BME280_pressure;Samples;Min_cycle;Max_cycle;Signal;HPM_P1;HPM_P2
2022/03/29 00:02:32;;;;;;;16.20;7.97;;;11.40;76.30;;;;;;6098614;23;20459;-85
2022/03/29 00:05:11;;;;;;;12.87;8.17;;;11.40;76.60;;;;;;6108628;23;20455;-85
2022/03/29 00:10:12;;;;;;;12.90;8.10;;;11.30;77.30;;;;;;6099337;23;20754;-86
2022/03/29 00:12:53;;;;;;;15.57;9.03;;;11.20;77.40;;;;;;6101475;23;20487;-85
2022/03/29 00:18:46;;;;;;;13.33;8.23;;;11.20;77.90;;;;;;6084623;23;20408;-85
2022/03/29 00:21:27;;;;;;;12.77;8.73;;;11.20;78.10;;;;;;6100536;23;20456;-85
2022/03/29 00:24:01;;;;;;;18.20;8.57;;;11.10;78.20;;;;;;6105520;23;20395;-85
2022/03/29 00:26:35;;;;;;;19.13;9.20;;;11.20;78.60;;;;;;6121082;23;20431;-85
2022/03/29 00:29:08;;;;;;;15.30;8.50;;;11.20;78.30;;;;;;6117602;23;20458;-86
2022/03/29 00:31:42;;;;;;;15.00;8.97;;;11.30;78.40;;;;;;6115004;23;20961;-86
2022/03/29 00:37:02;;;;;;;13.37;8.37;;;11.10;79.40;;;;;;6067146;23;20399;-86
2022/03/29 00:39:32;;;;;;;12.27;8.20;;;11.10;79.60;;;;;;6113606;23;20426;-86
2022/03/29 00:42:03;;;;;;;12.80;8.20;;;11.20;79.50;;;;;;6112954;23;20417;-87
2022/03/29 00:44:33;;;;;;;15.00;8.57;;;11.30;79.30;;;;;;6108727;23;20429;-87
2022/03/29 00:47:18;;;;;;;13.80;9.27;;;11.30;79.40;;;;;;6108501;23;20426;-86
2022/03/29 00:49:47;;;;;;;16.00;8.93;;;11.30;79.10;;;;;;6122959;23;20467;-87
2022/03/29 00:52:28;;;;;;;15.47;10.00;;;11.40;79.20;;;;;;6110909;23;20444;-86
2022/03/29 00:55:14;;;;;;;12.63;7.63;;;11.30;79.30;;;;;;6109015;23;20395;-87
2022/03/29 00:57:49;;;;;;;16.20;8.77;;;11.40;79.50;;;;;;6109600;23;20456;-87
2022/03/29 01:00:17;;;;;;;17.37;8.57;;;11.30;79.60;;;;;;6106768;23;20457;-86
2022/03/29 01:02:44;;;;;;;11.97;8.43;;;11.20;79.90;;;;;;6112002;23;20448;-86
2022/03/29 01:05:13;;;;;;;12.70;8.20;;;11.20;80.60;;;;;;6109549;23;20401;-86
2022/03/29 01:07:40;;;;;;;12.83;9.90;;;11.20;81.00;;;;;;6108661;23;20432;-85
2022/03/29 01:10:08;;;;;;;13.40;8.27;;;11.20;81.90;;;;;;6110891;23;20441;-85
2022/03/29 01:12:37;;;;;;;12.90;8.70;;;11.20;81.10;;;;;;6111225;23;20421;-86
2022/03/29 01:15:08;;;;;;;12.77;8.20;;;11.10;81.40;;;;;;6102958;23;20423;-85
2022/03/29 01:17:43;;;;;;;15.37;8.20;;;11.00;81.70;;;;;;6104826;23;20419;-86
2022/03/29 01:20:16;;;;;;;15.53;8.50;;;10.90;82.30;;;;;;6105187;23;20395;-86
2022/03/29 01:22:46;;;;;;;14.10;10.20;;;10.90;82.80;;;;;;6105658;23;20376;-87
2022/03/29 01:25:16;;;;;;;14.93;8.73;;;10.80;83.30;;;;;;6105653;23;20425;-86
2022/03/29 01:27:45;;;;;;;12.27;7.80;;;10.80;83.40;;;;;;6106244;23;20401;-86
2022/03/29 01:30:13;;;;;;;14.03;8.63;;;10.90;83.60;;;;;;6107048;23;20462;-86
2022/03/29 01:32:44;;;;;;;14.03;8.97;;;10.80;83.70;;;;;;6104606;23;20778;-86
2022/03/29 01:35:12;;;;;;;14.80;9.30;;;10.90;83.80;;;;;;6104456;23;20402;-87
2022/03/29 01:37:40;;;;;;;13.87;8.90;;;10.90;84.90;;;;;;6103813;23;20429;-87
2022/03/29 01:40:13;;;;;;;16.50;10.80;;;10.90;83.90;;;;;;6103988;23;20444;-87
2022/03/29 01:42:42;;;;;;;14.63;9.37;;;10.90;83.90;;;;;;6107771;23;20455;-86
2022/03/29 01:45:22;;;;;;;12.77;8.90;;;10.90;84.10;;;;;;6109335;23;20826;-85
2022/03/29 01:47:49;;;;;;;15.27;8.40;;;10.80;84.30;;;;;;6103817;23;20439;-86
2022/03/29 01:50:16;;;;;;;17.10;9.23;;;10.80;84.50;;;;;;6108004;23;20444;-86
2022/03/29 01:52:47;;;;;;;11.83;8.60;;;10.90;84.10;;;;;;6104379;23;20397;-85
2022/03/29 01:55:17;;;;;;;15.07;9.93;;;10.80;84.20;;;;;;6117482;23;20406;-84
2022/03/29 01:57:44;;;;;;;13.23;8.53;;;10.90;84.10;;;;;;6122791;23;20405;-85
2022/03/29 02:00:31;;;;;;;16.63;9.63;;;10.80;84.10;;;;;;6119757;23;20423;-85
2022/03/29 02:02:59;;;;;;;13.20;9.50;;;10.90;84.30;;;;;;6112539;23;20440;-86
2022/03/29 02:05:26;;;;;;;13.90;8.53;;;10.90;84.00;;;;;;6104913;23;20401;-86
2022/03/29 02:07:53;;;;;;;12.40;8.27;;;11.00;83.90;;;;;;6114293;23;20401;-85
2022/03/29 02:10:23;;;;;;;14.23;9.00;;;11.00;83.70;;;;;;6119636;23;20419;-87
2022/03/29 02:12:51;;;;;;;15.10;8.80;;;11.00;83.70;;;;;;6120161;23;20384;-86
2022/03/29 02:15:21;;;;;;;15.23;9.00;;;10.90;83.60;;;;;;6116534;23;20360;-86
2022/03/29 02:17:49;;;;;;;16.00;9.10;;;11.00;83.90;;;;;;6116863;23;20907;-87
2022/03/29 02:20:19;;;;;;;13.77;9.43;;;10.90;83.70;;;;;;6117455;23;20425;-85
2022/03/29 02:22:48;;;;;;;13.07;8.47;;;11.00;83.90;;;;;;6110976;23;20372;-86
2022/03/29 02:25:15;;;;;;;12.60;8.63;;;10.90;83.60;;;;;;6107056;23;20705;-88
2022/03/29 02:27:45;;;;;;;15.07;8.93;;;11.00;84.00;;;;;;6102916;23;20401;-86
2022/03/29 02:30:14;;;;;;;15.80;9.40;;;10.90;84.00;;;;;;6102833;23;20424;-87
2022/03/29 02:32:41;;;;;;;17.33;9.50;;;11.00;84.30;;;;;;6104742;23;20420;-86
2022/03/29 02:35:12;;;;;;;16.10;9.00;;;11.00;84.10;;;;;;6114890;23;20384;-87
2022/03/29 02:37:39;;;;;;;12.60;9.17;;;11.00;83.90;;;;;;6114318;23;20428;-88
2022/03/29 02:40:09;;;;;;;15.60;9.40;;;11.00;83.50;;;;;;6104844;23;20414;-88
2022/03/29 02:42:41;;;;;;;16.47;9.20;;;11.00;83.50;;;;;;6107212;23;20878;-88
2022/03/29 02:45:14;;;;;;;14.33;8.13;;;11.00;83.10;;;;;;6103629;23;20451;-88
2022/03/29 02:47:43;;;;;;;13.47;9.07;;;11.00;83.10;;;;;;6103106;23;20876;-88
2022/03/29 02:50:12;;;;;;;15.33;9.17;;;11.00;82.80;;;;;;6102887;23;20429;-86
2022/03/29 02:52:49;;;;;;;15.87;8.77;;;11.10;82.90;;;;;;6103412;23;20468;-87
2022/03/29 02:55:18;;;;;;;12.70;8.60;;;11.20;82.60;;;;;;6102384;23;20597;-87
2022/03/29 02:57:46;;;;;;;15.30;8.30;;;11.10;82.30;;;;;;6102942;23;20432;-87
2022/03/29 03:00:20;;;;;;;15.10;9.40;;;11.20;82.50;;;;;;6103676;23;20472;-87
2022/03/29 03:03:03;;;;;;;16.00;9.50;;;11.10;82.40;;;;;;6103743;23;20447;-87
2022/03/29 03:05:34;;;;;;;16.73;9.97;;;11.10;82.80;;;;;;6102427;23;20912;-86
2022/03/29 03:08:02;;;;;;;12.93;7.80;;;11.00;83.10;;;;;;6102458;23;20880;-87
2022/03/29 03:10:31;;;;;;;20.67;9.90;;;11.20;82.80;;;;;;6102485;23;20504;-88
2022/03/29 03:12:59;;;;;;;14.70;8.90;;;11.20;82.70;;;;;;6119406;23;20419;-85
2022/03/29 03:15:30;;;;;;;13.20;8.13;;;11.30;82.70;;;;;;6122507;23;20383;-86
2022/03/29 03:18:01;;;;;;;13.57;9.17;;;11.20;82.50;;;;;;6105038;23;20749;-86
2022/03/29 03:20:29;;;;;;;13.30;9.73;;;11.20;82.50;;;;;;6109732;23;20413;-87
2022/03/29 03:22:57;;;;;;;14.80;8.60;;;11.20;82.50;;;;;;6121655;23;20371;-84
2022/03/29 03:25:24;;;;;;;13.67;9.33;;;11.10;82.50;;;;;;6123520;23;20396;-85
2022/03/29 03:27:51;;;;;;;14.10;8.63;;;11.00;82.70;;;;;;6122981;23;20494;-87
2022/03/29 03:30:18;;;;;;;14.10;8.67;;;11.00;82.90;;;;;;6123442;23;20432;-86
2022/03/29 03:32:48;;;;;;;17.97;8.53;;;11.00;83.00;;;;;;6123413;23;20431;-86
2022/03/29 03:35:22;;;;;;;11.77;8.40;;;11.00;83.10;;;;;;6111661;23;20447;-85
2022/03/29 03:37:50;;;;;;;12.90;8.07;;;11.00;83.50;;;;;;6121939;23;20441;-87
2022/03/29 03:40:17;;;;;;;23.33;9.30;;;11.00;83.50;;;;;;6108627;23;20441;-86
2022/03/29 03:42:45;;;;;;;11.77;8.67;;;10.90;83.70;;;;;;6105831;23;20384;-87
2022/03/29 03:45:12;;;;;;;16.67;9.13;;;10.90;83.60;;;;;;6105166;23;20433;-87
2022/03/29 03:47:39;;;;;;;17.17;9.00;;;10.90;83.30;;;;;;6105081;23;20589;-86
2022/03/29 03:50:09;;;;;;;15.63;8.63;;;11.00;83.30;;;;;;6103563;23;20487;-86
2022/03/29 03:52:36;;;;;;;14.03;9.10;;;11.00;83.70;;;;;;6106105;23;20479;-86
2022/03/29 03:55:04;;;;;;;13.70;10.47;;;10.90;84.00;;;;;;6103804;23;20445;-85
2022/03/29 03:57:32;;;;;;;15.27;10.10;;;10.80;84.00;;;;;;6103467;23;20421;-86
2022/03/29 04:00:00;;;;;;;14.60;9.30;;;10.70;84.50;;;;;;6102715;23;20487;-87
2022/03/29 04:02:27;;;;;;;17.50;10.87;;;10.50;84.60;;;;;;6101445;23;20380;-87
2022/03/29 04:04:54;;;;;;;18.20;10.13;;;10.50;84.60;;;;;;6101590;23;20416;-87
2022/03/29 04:07:22;;;;;;;14.63;10.10;;;10.50;84.70;;;;;;6103199;23;20491;-85
2022/03/29 04:09:52;;;;;;;24.03;11.33;;;10.40;84.90;;;;;;6103447;23;20419;-86
2022/03/29 04:12:19;;;;;;;15.70;11.37;;;10.40;84.90;;;;;;6102631;23;20452;-86
2022/03/29 04:14:49;;;;;;;16.43;10.13;;;10.40;84.70;;;;;;6102746;23;20443;-86
2022/03/29 04:17:16;;;;;;;15.33;10.90;;;10.30;84.70;;;;;;6103449;23;20469;-86
2022/03/29 04:19:43;;;;;;;18.50;12.20;;;10.30;84.80;;;;;;6107025;23;20468;-86
2022/03/29 04:22:10;;;;;;;18.43;10.87;;;10.30;85.00;;;;;;6106319;23;20443;-87
2022/03/29 04:24:38;;;;;;;13.23;9.63;;;10.30;84.80;;;;;;6103427;23;20430;-86
2022/03/29 04:27:05;;;;;;;19.73;11.60;;;10.30;84.50;;;;;;6104574;23;20777;-86
2022/03/29 04:29:32;;;;;;;17.47;10.50;;;10.40;84.40;;;;;;6104034;23;20950;-86
2022/03/29 04:31:59;;;;;;;19.23;11.50;;;10.60;83.50;;;;;;6106821;23;20443;-85
2022/03/29 04:34:26;;;;;;;18.67;10.77;;;10.50;83.40;;;;;;6107746;23;20444;-86
2022/03/29 04:36:52;;;;;;;16.17;9.87;;;10.40;83.80;;;;;;6105587;23;20408;-85
2022/03/29 04:39:19;;;;;;;15.07;11.10;;;10.40;84.70;;;;;;6104308;23;20407;-86
2022/03/29 04:41:48;;;;;;;17.43;11.30;;;10.50;84.90;;;;;;6105559;23;20413;-85
2022/03/29 04:44:15;;;;;;;19.10;11.57;;;10.50;84.20;;;;;;6104063;23;20441;-87
2022/03/29 04:46:41;;;;;;;14.93;9.90;;;10.60;84.40;;;;;;6103648;23;20397;-87
2022/03/29 04:49:08;;;;;;;16.40;10.67;;;10.60;85.00;;;;;;6103524;23;20437;-87
2022/03/29 04:51:36;;;;;;;21.77;11.10;;;10.70;86.30;;;;;;6105115;23;20437;-87
2022/03/29 04:54:03;;;;;;;18.07;10.03;;;10.70;86.80;;;;;;6105176;23;20755;-86
2022/03/29 04:56:30;;;;;;;17.87;10.10;;;10.80;87.60;;;;;;6104049;23;20420;-86
2022/03/29 04:58:58;;;;;;;15.70;9.83;;;10.70;87.50;;;;;;6112193;23;20391;-86
2022/03/29 05:01:25;;;;;;;13.87;9.77;;;10.60;87.80;;;;;;6110151;23;20411;-85
2022/03/29 05:03:52;;;;;;;16.47;9.67;;;10.50;88.50;;;;;;6105618;23;20422;-87
2022/03/29 05:06:19;;;;;;;13.97;9.30;;;10.40;89.00;;;;;;6105441;23;20756;-86
2022/03/29 05:08:46;;;;;;;16.90;9.20;;;10.30;89.00;;;;;;6103818;23;20463;-87
2022/03/29 05:11:12;;;;;;;16.43;9.43;;;10.30;89.30;;;;;;6102355;23;20433;-86
2022/03/29 05:13:39;;;;;;;18.13;9.10;;;10.20;89.60;;;;;;6104476;23;20416;-85
2022/03/29 05:16:08;;;;;;;16.60;10.83;;;10.20;89.90;;;;;;6106312;23;20427;-86
2022/03/29 05:18:35;;;;;;;20.27;9.43;;;10.20;89.80;;;;;;6112132;23;20386;-85
2022/03/29 05:21:01;;;;;;;16.97;10.20;;;10.20;89.70;;;;;;6121768;23;20437;-86
2022/03/29 05:23:28;;;;;;;20.23;9.70;;;10.10;89.70;;;;;;6120620;23;20411;-85
2022/03/29 05:25:55;;;;;;;16.37;9.60;;;10.10;90.00;;;;;;6110727;23;20420;-86
2022/03/29 05:28:22;;;;;;;16.27;10.00;;;10.00;90.20;;;;;;6112843;23;20409;-85
2022/03/29 05:30:50;;;;;;;15.27;9.17;;;10.00;90.30;;;;;;6107082;23;20742;-84
2022/03/29 05:33:19;;;;;;;14.53;10.17;;;10.00;90.50;;;;;;6112552;23;20508;-85
2022/03/29 05:35:49;;;;;;;19.00;9.70;;;10.00;90.20;;;;;;6112596;23;20419;-85
2022/03/29 05:38:16;;;;;;;16.50;10.60;;;10.00;90.80;;;;;;6114948;23;20386;-86
2022/03/29 05:40:43;;;;;;;16.57;10.50;;;9.90;91.20;;;;;;6107123;23;20502;-87
2022/03/29 05:43:11;;;;;;;16.47;9.73;;;9.90;91.40;;;;;;6107964;23;20405;-87
2022/03/29 05:45:39;;;;;;;15.37;9.27;;;9.80;91.50;;;;;;6108516;23;20515;-86
2022/03/29 05:50:59;;;;;;;17.50;9.53;;;9.90;91.40;;;;;;6106342;23;20402;-86
2022/03/29 05:53:26;;;;;;;16.30;10.20;;;10.00;90.60;;;;;;6105583;23;20424;-86
2022/03/29 05:55:53;;;;;;;14.00;9.50;;;10.10;90.20;;;;;;6107017;23;20448;-85
2022/03/29 05:58:20;;;;;;;17.30;9.57;;;10.20;90.60;;;;;;6109093;23;20417;-87
2022/03/29 06:00:48;;;;;;;12.80;9.47;;;10.30;90.20;;;;;;6105953;23;20492;-88
2022/03/29 06:03:15;;;;;;;13.53;9.60;;;10.30;90.20;;;;;;6110935;23;20401;-86
2022/03/29 06:05:46;;;;;;;18.67;10.00;;;10.10;90.50;;;;;;6108841;23;20554;-86
2022/03/29 06:08:22;;;;;;;17.03;9.80;;;10.10;90.90;;;;;;6103648;23;20382;-87
2022/03/29 06:10:56;;;;;;;14.40;9.67;;;10.20;90.90;;;;;;6103493;23;20437;-87
2022/03/29 06:13:29;;;;;;;15.53;10.13;;;10.30;90.50;;;;;;6102964;23;20444;-86
2022/03/29 06:15:58;;;;;;;17.10;10.00;;;10.30;90.50;;;;;;6103485;23;20730;-86
2022/03/29 06:18:26;;;;;;;21.33;10.67;;;10.40;90.60;;;;;;6109735;23;20487;-86
2022/03/29 06:25:06;;;;;;;16.83;9.90;;;10.70;90.20;;;;;;5963511;23;20435;-84
2022/03/29 06:27:43;;;;;;;13.80;9.40;;;10.70;89.90;;;;;;6002576;23;20425;-85
2022/03/29 06:30:16;;;;;;;18.70;10.43;;;10.70;89.90;;;;;;6003535;24;20396;-86
2022/03/29 06:32:49;;;;;;;21.13;10.70;;;10.90;89.60;;;;;;6082676;23;20431;-85
2022/03/29 06:35:24;;;;;;;17.07;11.43;;;11.00;89.30;;;;;;6107770;23;20371;-86
2022/03/29 06:38:07;;;;;;;22.33;11.33;;;11.00;88.60;;;;;;6108598;23;20469;-87
2022/03/29 06:40:47;;;;;;;16.27;10.30;;;11.00;88.90;;;;;;6108248;23;20773;-86
2022/03/29 06:43:15;;;;;;;17.13;11.37;;;11.00;89.00;;;;;;6116563;23;20389;-84
2022/03/29 06:45:47;;;;;;;18.67;11.03;;;11.00;89.00;;;;;;6121736;23;20416;-85
2022/03/29 06:48:25;;;;;;;19.53;10.40;;;11.10;89.30;;;;;;6119360;23;20415;-85
2022/03/29 06:51:05;;;;;;;20.30;11.47;;;11.20;89.30;;;;;;6117796;23;20448;-86
2022/03/29 06:53:43;;;;;;;25.67;13.00;;;11.30;89.10;;;;;;6114465;23;20476;-85
2022/03/29 06:56:22;;;;;;;25.00;11.23;;;11.40;88.90;;;;;;6108417;23;20384;-87
2022/03/29 06:58:56;;;;;;;24.40;11.67;;;11.40;88.60;;;;;;6107290;23;20399;-86
2022/03/29 07:01:49;;;;;;;18.23;11.50;;;11.50;88.70;;;;;;6104647;23;20399;-88
2022/03/29 07:15:05;;;;;;;18.40;11.87;;;12.00;87.80;;;;;;5949679;24;20422;-85
2022/03/29 07:17:52;;;;;;;28.63;13.43;;;12.10;87.40;;;;;;5913330;24;20434;-87
2022/03/29 07:20:22;;;;;;;23.50;13.30;;;12.20;86.50;;;;;;5916888;23;20438;-88
2022/03/29 07:23:11;;;;;;;33.43;12.73;;;12.30;86.30;;;;;;6093410;23;20416;-86
2022/03/29 07:28:35;;;;;;;24.00;13.20;;;12.30;85.40;;;;;;6081174;23;20399;-87
2022/03/29 07:31:16;;;;;;;18.63;13.17;;;12.40;85.10;;;;;;6114319;23;20447;-87
2022/03/29 07:34:26;;;;;;;27.07;13.80;;;12.40;84.40;;;;;;6110997;23;20894;-87
2022/03/29 07:37:37;;;;;;;18.60;12.90;;;12.50;84.50;;;;;;6108124;23;20420;-87
2022/03/29 07:44:04;;;;;;;21.07;14.50;;;12.60;83.00;;;;;;6110337;23;20428;-86
2022/03/29 07:50:37;;;;;;;20.33;12.70;;;12.80;81.80;;;;;;6094400;23;20444;-87
2022/03/29 09:04:36;;;;;;;25.87;16.33;;;14.70;73.90;;;;;;5772205;24;20383;-85
2022/03/29 12:59:23;;;;;;;22.77;15.90;;;19.10;55.00;;;;;;5803780;24;20418;-87
2022/03/29 13:12:32;;;;;;;21.90;13.50;;;18.80;55.60;;;;;;5991461;23;20412;-87
2022/03/29 13:22:43;;;;;;;28.53;15.43;;;18.90;54.90;;;;;;6078996;23;20421;-86
2022/03/29 13:31:57;;;;;;;23.83;14.17;;;18.90;54.70;;;;;;6018250;23;20794;-87
2022/03/29 13:37:59;;;;;;;24.13;14.23;;;18.90;54.70;;;;;;6020233;23;20453;-87
2022/03/29 13:44:52;;;;;;;;;;;;;;;;;;;;;
2022/03/29 14:02:25;;;;;;;29.87;15.97;;;18.90;54.70;;;;;;5907364;24;20446;-89
2022/03/29 14:08:19;;;;;;;26.37;16.00;;;19.20;54.10;;;;;;5803647;24;20450;-87
2022/03/29 14:10:50;;;;;;;23.83;16.13;;;19.30;53.90;;;;;;5973546;23;20421;-87
2022/03/29 14:13:17;;;;;;;21.37;15.70;;;19.20;54.10;;;;;;6051370;23;20540;-88
2022/03/29 14:15:55;;;;;;;33.33;18.33;;;19.10;54.20;;;;;;6048576;23;20466;-87
2022/03/29 14:18:30;;;;;;;26.90;18.20;;;19.00;54.20;;;;;;6048903;23;20879;-86
2022/03/29 14:21:12;;;;;;;;;;;;;;;;;;;;;
2022/03/29 14:27:22;;;;;;;32.93;18.37;;;19.00;55.00;;;;;;6046132;23;20426;-87
2022/03/29 14:29:51;;;;;;;24.77;15.93;;;19.00;55.10;;;;;;6035405;23;20445;-88
2022/03/29 14:32:43;;;;;;;27.50;18.50;;;19.10;54.40;;;;;;6077492;23;20422;-85
2022/03/29 14:35:19;;;;;;;26.80;17.37;;;19.10;54.40;;;;;;6064915;23;20418;-88
2022/03/29 14:38:17;;;;;;;22.70;15.93;;;19.30;54.10;;;;;;6083037;23;20381;-88
2022/03/29 14:44:27;;;;;;;31.80;18.10;;;19.50;54.00;;;;;;6076967;23;20385;-88
2022/03/29 14:47:45;;;;;;;27.87;17.60;;;19.40;53.90;;;;;;6076619;23;20418;-88
2022/03/29 14:54:32;;;;;;;;;;;;;;;;;;;;;
2022/03/29 15:00:41;;;;;;;29.70;18.23;;;19.10;55.00;;;;;;6104158;23;20511;-88
2022/03/29 15:03:43;;;;;;;27.33;17.60;;;18.90;55.60;;;;;;6046871;23;20415;-87
2022/03/29 15:06:48;;;;;;;25.17;16.37;;;19.00;55.70;;;;;;6120417;23;20404;-89
2022/03/29 15:18:51;;;;;;;26.70;16.57;;;19.00;56.20;;;;;;5996940;23;20427;-87
2022/03/29 15:21:41;;;;;;;24.20;16.43;;;19.10;55.20;;;;;;6017135;23;20412;-87
2022/03/29 15:24:14;;;;;;;24.93;18.40;;;19.00;55.60;;;;;;6057804;23;20424;-88
2022/03/29 15:27:03;;;;;;;24.77;16.57;;;19.00;56.00;;;;;;6107531;23;20417;-88
2022/03/29 15:29:39;;;;;;;26.73;17.57;;;19.00;55.40;;;;;;6108022;23;20444;-89
2022/03/29 15:32:24;;;;;;;29.83;17.77;;;19.00;55.50;;;;;;6105795;23;20728;-87
2022/03/29 15:35:10;;;;;;;29.77;18.90;;;19.30;55.00;;;;;;6106880;23;20443;-87
2022/03/29 15:40:48;;;;;;;20.60;15.40;;;19.10;55.20;;;;;;6108100;23;20375;-89
2022/03/29 15:43:16;;;;;;;19.47;10.63;;;19.00;55.30;;;;;;6066251;23;20484;-89
2022/03/29 15:45:55;;;;;;;25.80;10.10;;;19.00;51.00;;;;;;6107861;23;20417;-88
2022/03/29 15:48:28;;;;;;;30.93;10.60;;;19.00;48.60;;;;;;6109797;23;20481;-87
2022/03/29 15:50:56;;;;;;;22.70;9.23;;;19.00;48.70;;;;;;6108939;23;20488;-88
2022/03/29 15:53:29;;;;;;;29.43;10.47;;;19.00;48.30;;;;;;6107940;23;20480;-89
2022/03/29 15:55:58;;;;;;;21.57;8.23;;;18.80;48.90;;;;;;6116556;23;20532;-89
2022/03/29 15:58:41;;;;;;;35.87;11.80;;;18.80;48.80;;;;;;6114746;23;20486;-90
2022/03/29 16:01:10;;;;;;;24.30;11.30;;;18.50;49.20;;;;;;6108471;23;20857;-89
2022/03/29 16:03:47;;;;;;;22.10;10.27;;;18.60;51.30;;;;;;6110611;23;20450;-89
2022/03/29 16:06:20;;;;;;;31.23;16.63;;;18.40;53.50;;;;;;6111015;23;20379;-89
2022/03/29 16:08:55;;;;;;;31.63;14.90;;;18.30;55.20;;;;;;6110486;23;20766;-88
2022/03/29 16:12:02;;;;;;;27.80;15.63;;;18.20;54.00;;;;;;6108195;23;20419;-89
2022/03/29 16:14:29;;;;;;;24.73;14.87;;;18.30;54.20;;;;;;6107326;23;20471;-88
2022/03/29 16:17:03;;;;;;;22.60;14.80;;;18.40;53.80;;;;;;6107493;23;20475;-87
2022/03/29 16:19:49;;;;;;;26.57;16.53;;;18.40;54.30;;;;;;6108048;23;20418;-88
2022/03/29 16:22:17;;;;;;;30.40;18.53;;;18.30;56.10;;;;;;6109180;23;20417;-88
2022/03/29 16:24:44;;;;;;;30.07;19.17;;;18.30;57.00;;;;;;6108033;23;20468;-88
2022/03/29 16:27:16;;;;;;;26.83;18.00;;;18.30;57.40;;;;;;6107827;23;20450;-87
2022/03/29 16:29:44;;;;;;;31.10;16.73;;;18.30;57.60;;;;;;6107906;23;21007;-86
2022/03/29 16:32:20;;;;;;;28.97;18.73;;;18.10;57.80;;;;;;6107554;23;20398;-87
2022/03/29 16:35:02;;;;;;;32.80;19.33;;;18.00;57.90;;;;;;6110383;23;20445;-87
2022/03/29 16:37:38;;;;;;;29.27;17.20;;;18.00;57.90;;;;;;6112528;23;20418;-85
2022/03/29 16:40:17;;;;;;;30.80;16.83;;;18.00;56.90;;;;;;6112476;23;20416;-87
2022/03/29 17:38:52;;;;;;;23.70;14.23;;;17.80;56.90;;;;;;5986718;24;20493;-88
2022/03/29 17:41:22;;;;;;;26.77;13.67;;;17.70;56.80;;;;;;6068434;23;20413;-87
2022/03/29 17:44:03;;;;;;;23.30;13.60;;;17.70;56.30;;;;;;6107613;23;20417;-88
2022/03/29 17:46:59;;;;;;;24.00;14.13;;;17.60;56.60;;;;;;6106891;23;20428;-88
2022/03/29 17:49:31;;;;;;;22.33;12.37;;;17.60;56.60;;;;;;6107520;23;20424;-87
2022/03/29 17:52:19;;;;;;;21.47;11.63;;;17.70;56.30;;;;;;6113148;23;20716;-88
2022/03/29 17:54:54;;;;;;;21.00;11.60;;;17.70;56.20;;;;;;6119855;23;20423;-87
2022/03/29 18:00:15;;;;;;;16.67;11.23;;;17.60;56.00;;;;;;6099581;23;20464;-88
2022/03/29 18:02:58;;;;;;;28.57;12.47;;;17.60;56.10;;;;;;6107321;23;20419;-88
2022/03/29 18:05:36;;;;;;;25.30;10.90;;;17.70;55.90;;;;;;6107044;23;20476;-89
2022/03/29 18:08:14;;;;;;;28.80;12.80;;;17.70;56.00;;;;;;6106950;23;20418;-87
2022/03/29 18:10:57;;;;;;;23.97;12.80;;;17.60;56.00;;;;;;6116121;23;20391;-87
2022/03/29 19:35:25;;;;;;;19.83;10.57;;;16.30;63.50;;;;;;5864631;24;20441;-86
2022/03/29 19:41:49;;;;;;;;;;;;;;;;;;;;;
2022/03/29 19:44:56;;;;;;;21.27;12.10;;;16.20;63.30;;;;;;5879562;24;20422;-86
2022/03/29 19:51:15;;;;;;;17.93;10.10;;;16.10;64.20;;;;;;5824018;24;20411;-86
2022/03/29 19:56:34;;;;;;;17.40;10.50;;;16.10;64.70;;;;;;5871343;24;20920;-85
2022/03/29 19:59:39;;;;;;;;;;;;;;;;;;;;;
2022/03/29 20:02:18;;;;;;;17.53;11.33;;;16.20;64.60;;;;;;5918804;24;20441;-86
2022/03/29 20:07:55;;;;;;;23.90;12.97;;;15.80;65.10;;;;;;5934762;24;20408;-86
2022/03/29 20:10:50;;;;;;;28.37;14.50;;;15.70;65.90;;;;;;5961225;24;20396;-87
2022/03/29 20:13:32;;;;;;;26.87;14.80;;;15.60;66.60;;;;;;5958217;24;20428;-84
2022/03/29 20:16:01;;;;;;;20.77;13.30;;;15.50;67.30;;;;;;5961862;24;20468;-87
2022/03/29 20:18:37;;;;;;;21.63;12.47;;;15.30;67.70;;;;;;5959656;24;20368;-86
2022/03/29 20:21:16;;;;;;;22.53;11.97;;;15.20;68.20;;;;;;5959835;24;20399;-86
2022/03/29 20:23:48;;;;;;;28.20;12.27;;;15.20;68.20;;;;;;5960676;24;20487;-84
2022/03/29 20:26:27;;;;;;;23.30;11.90;;;15.20;68.40;;;;;;5963000;24;20368;-86
2022/03/29 20:38:09;;;;;;;19.83;11.53;;;15.20;69.20;;;;;;6075479;23;20384;-87
2022/03/29 20:41:11;;;;;;;20.70;10.73;;;15.10;69.50;;;;;;6076267;23;20389;-87
2022/03/29 20:44:01;;;;;;;24.10;12.40;;;15.10;69.60;;;;;;6091616;23;20421;-87
2022/03/29 20:46:30;;;;;;;23.03;13.33;;;14.90;70.00;;;;;;6084045;23;20421;-87
2022/03/29 20:49:08;;;;;;;16.60;10.70;;;14.90;70.00;;;;;;6089470;23;20396;-87
2022/03/29 20:58:20;;;;;;;16.97;10.40;;;15.00;70.20;;;;;;6104405;23;20435;-87
2022/03/29 21:01:35;;;;;;;19.10;11.73;;;15.00;70.50;;;;;;6081579;23;20399;-86
2022/03/29 21:10:55;;;;;;;;;;;;;;;;;;;;;
2022/03/29 21:13:35;;;;;;;;;;;;;;;;;;;;;
2022/03/29 21:19:20;;;;;;;27.33;13.47;;;14.50;72.50;;;;;;6123162;23;20384;-86
2022/03/29 21:22:06;;;;;;;22.17;12.80;;;14.30;73.00;;;;;;6124388;23;20372;-86
2022/03/29 21:24:40;;;;;;;21.13;12.77;;;14.20;73.40;;;;;;6122459;23;20475;-87
2022/03/29 21:27:08;;;;;;;18.13;11.90;;;14.30;73.90;;;;;;6112045;23;20867;-86
2022/03/29 21:29:37;;;;;;;19.13;12.03;;;14.20;73.70;;;;;;6107779;23;20375;-86
2022/03/29 21:32:28;;;;;;;21.03;13.00;;;14.20;73.90;;;;;;6105224;23;20445;-87
2022/03/29 21:35:10;;;;;;;24.37;13.57;;;14.20;73.70;;;;;;6106504;23;20705;-87
2022/03/29 21:37:37;;;;;;;19.80;12.30;;;14.10;73.70;;;;;;6107257;23;20394;-86
2022/03/29 21:40:05;;;;;;;26.67;13.77;;;14.20;73.70;;;;;;6105352;23;20486;-85
2022/03/29 21:42:37;;;;;;;21.47;12.40;;;14.10;73.70;;;;;;6103966;23;20440;-86
2022/03/29 21:45:19;;;;;;;;;;;;;;;;;;;;;
2022/03/29 21:47:49;;;;;;;21.40;12.77;;;14.10;74.00;;;;;;6108188;23;20411;-86
2022/03/29 21:50:20;;;;;;;23.30;12.90;;;14.10;74.30;;;;;;6109615;23;20396;-85
2022/03/29 21:52:47;;;;;;;24.87;13.50;;;14.10;74.30;;;;;;6110139;23;20392;-85
2022/03/29 21:55:17;;;;;;;19.63;12.30;;;14.00;74.30;;;;;;6111124;23;20478;-86
2022/03/29 21:57:47;;;;;;;30.33;14.30;;;14.10;74.60;;;;;;6112341;23;20429;-86
2022/03/29 22:00:40;;;;;;;20.47;12.40;;;13.90;75.90;;;;;;6111660;23;20398;-86
2022/03/29 22:03:10;;;;;;;28.67;14.37;;;13.80;75.90;;;;;;6107334;23;20403;-86
2022/03/29 22:05:39;;;;;;;27.00;13.73;;;13.80;76.30;;;;;;6106231;23;20931;-86
2022/03/29 22:08:08;;;;;;;28.23;14.53;;;13.70;77.00;;;;;;6109416;23;20872;-84
2022/03/29 22:10:39;;;;;;;22.23;13.00;;;13.70;77.40;;;;;;6109779;23;20456;-86
2022/03/29 22:13:06;;;;;;;25.83;12.70;;;13.70;77.60;;;;;;6122897;23;20454;-86
2022/03/29 22:15:36;;;;;;;24.53;13.73;;;13.60;77.70;;;;;;6113718;23;20464;-86
2022/03/29 22:18:08;;;;;;;24.07;13.50;;;13.50;77.70;;;;;;6115841;23;20413;-87
2022/03/29 22:20:35;;;;;;;21.23;12.70;;;13.50;77.90;;;;;;6104441;23;20372;-87
2022/03/29 22:23:15;;;;;;;28.07;13.83;;;13.50;78.50;;;;;;6103659;23;20402;-86
2022/03/29 22:25:42;;;;;;;21.00;13.37;;;13.40;78.90;;;;;;6104378;23;20819;-86
2022/03/29 22:28:17;;;;;;;21.10;14.20;;;13.30;79.10;;;;;;6103630;23;20379;-86
2022/03/29 22:30:43;;;;;;;28.23;13.10;;;13.30;79.60;;;;;;6104610;23;20396;-85
2022/03/29 22:33:13;;;;;;;24.03;13.73;;;13.20;79.80;;;;;;6104296;23;20431;-85
2022/03/29 22:35:41;;;;;;;21.30;12.20;;;13.20;80.10;;;;;;6104274;23;20447;-86
2022/03/29 22:38:09;;;;;;;22.10;14.57;;;13.20;80.40;;;;;;6104513;23;20395;-85
2022/03/29 22:40:37;;;;;;;21.60;13.17;;;13.20;80.60;;;;;;6105115;23;20404;-85
2022/03/29 22:43:05;;;;;;;23.37;13.33;;;13.20;80.40;;;;;;6103467;23;20906;-86
2022/03/29 22:45:34;;;;;;;21.33;13.47;;;13.10;80.70;;;;;;6103179;23;20391;-86
2022/03/29 22:48:00;;;;;;;21.63;12.60;;;13.00;81.50;;;;;;6104293;23;20476;-86
2022/03/29 22:50:30;;;;;;;24.90;13.10;;;12.90;82.00;;;;;;6111538;23;20419;-85
2022/03/29 22:52:58;;;;;;;24.70;13.27;;;12.90;82.30;;;;;;6114599;23;20622;-86
2022/03/29 22:55:26;;;;;;;24.07;12.90;;;12.80;82.80;;;;;;6118842;23;20463;-85
2022/03/29 22:57:56;;;;;;;19.13;13.40;;;12.70;83.10;;;;;;6115720;23;20419;-87
2022/03/29 23:00:24;;;;;;;23.30;13.00;;;12.70;83.60;;;;;;6116152;23;20401;-86
2022/03/29 23:02:51;;;;;;;20.90;12.87;;;12.80;84.00;;;;;;6104942;23;20411;-86
2022/03/29 23:05:31;;;;;;;16.70;12.50;;;12.80;84.00;;;;;;6108533;23;20398;-86
2022/03/29 23:07:58;;;;;;;21.80;12.90;;;12.70;84.10;;;;;;6116964;23;20420;-84
2022/03/29 23:11:00;;;;;;;19.40;13.07;;;12.70;84.00;;;;;;6116647;23;20472;-85
2022/03/29 23:13:29;;;;;;;27.47;14.17;;;12.70;84.00;;;;;;6102957;23;20429;-85